createdAt,value
2023-04-26T00:00:26.267Z,74.08
2023-04-26T00:01:26.262Z,74.50
2023-04-26T00:02:26.382Z,74.43
2023-04-26T00:03:26.335Z,74.95
2023-04-26T00:04:26.438Z,74.60
2023-04-26T00:05:26.248Z,74.43
2023-04-26T00:06:26.192Z,74.84
2023-04-26T00:07:26.194Z,74.53
2023-04-26T00:08:26.175Z,74.74
2023-04-26T00:09:26.153Z,74.74
2023-04-26T00:10:26.133Z,75.26
2023-04-26T00:11:26.151Z,75.67
2023-04-26T00:12:26.127Z,75.49
2023-04-26T00:13:26.105Z,75.67
2023-04-26T00:14:26.103Z,75.26
2023-04-26T00:15:26.102Z,75.19
2023-04-26T00:16:26.165Z,75.46
2023-04-26T00:17:26.061Z,75.39
2023-04-26T00:18:26.044Z,75.91
2023-04-26T00:19:26.063Z,76.12
2023-04-26T00:20:26.025Z,75.91
2023-04-26T00:21:26.045Z,76.73
2023-04-26T00:22:26.009Z,76.73
2023-04-26T00:23:25.992Z,76.32
2023-04-26T00:24:25.988Z,76.53
2023-04-26T00:25:25.966Z,76.87
2023-04-26T00:26:25.970Z,76.87
2023-04-26T00:27:25.958Z,77.15
2023-04-26T00:28:25.938Z,76.98
2023-04-26T00:29:25.949Z,77.19
2023-04-26T00:30:25.914Z,76.98
2023-04-26T00:31:25.963Z,76.91
2023-04-26T00:32:25.989Z,78.15
2023-04-26T00:33:25.894Z,77.74
2023-04-26T00:34:25.865Z,78.11
2023-04-26T00:35:25.908Z,77.84
2023-04-26T00:36:25.848Z,77.74
2023-04-26T00:37:25.846Z,78.15
2023-04-26T00:38:25.863Z,77.84
2023-04-26T00:39:25.822Z,77.64
2023-04-26T00:40:25.815Z,77.74
2023-04-26T00:41:25.812Z,78.56
2023-04-26T00:42:25.794Z,77.84
2023-04-26T00:43:25.771Z,78.15
2023-04-26T00:44:25.762Z,77.94
2023-04-26T00:45:25.761Z,78.05
2023-04-26T00:46:25.821Z,77.84
2023-04-26T00:47:25.827Z,78.05
2023-04-26T00:48:25.706Z,78.05
2023-04-26T00:49:25.722Z,78.19
2023-04-26T00:50:25.700Z,78.25
2023-04-26T00:51:25.744Z,78.15
2023-04-26T00:52:25.685Z,78.25
2023-04-26T00:53:25.665Z,78.39
2023-04-26T00:54:25.685Z,78.56
2023-04-26T00:55:25.693Z,78.91
2023-04-26T00:56:25.668Z,78.88
2023-04-26T00:57:25.604Z,78.77
2023-04-26T00:58:25.587Z,78.77
2023-04-26T00:59:25.622Z,78.77
2023-04-26T01:00:25.569Z,78.67
2023-04-26T01:01:25.621Z,78.88
2023-04-26T01:02:25.761Z,78.77
2023-04-26T01:03:25.721Z,78.36
2023-04-26T01:04:25.656Z,78.60
2023-04-26T01:05:25.513Z,78.70
2023-04-26T01:06:25.515Z,79.02
2023-04-26T01:07:25.532Z,78.77
2023-04-26T01:08:25.488Z,78.81
2023-04-26T01:09:25.498Z,79.22
2023-04-26T01:10:25.469Z,79.43
2023-04-26T01:11:25.471Z,79.19
2023-04-26T01:12:25.446Z,79.53
2023-04-26T01:13:25.435Z,78.70
2023-04-26T01:14:25.412Z,79.29
2023-04-26T01:15:25.413Z,79.19
2023-04-26T01:16:25.429Z,79.19
2023-04-26T01:17:25.417Z,80.26
2023-04-26T01:18:25.376Z,79.60
2023-04-26T01:19:25.359Z,80.11
2023-04-26T01:20:25.353Z,80.43
2023-04-26T01:21:25.357Z,79.60
2023-04-26T01:22:25.313Z,79.80
2023-04-26T01:23:25.342Z,79.74
2023-04-26T01:24:25.295Z,80.15
2023-04-26T01:25:25.326Z,80.15
2023-04-26T01:26:25.286Z,79.53
2023-04-26T01:27:25.267Z,80.05
2023-04-26T01:28:25.266Z,79.80
2023-04-26T01:29:25.256Z,79.43
2023-04-26T01:30:25.267Z,79.84
2023-04-26T01:31:25.290Z,79.63
2023-04-26T01:32:25.293Z,79.94
2023-04-26T01:33:25.193Z,79.63
2023-04-26T01:34:25.179Z,79.84
2023-04-26T01:35:25.192Z,80.05
2023-04-26T01:36:25.179Z,79.63
2023-04-26T01:37:25.156Z,79.29
2023-04-26T01:38:25.164Z,79.33
2023-04-26T01:39:25.144Z,79.39
2023-04-26T01:40:25.119Z,79.49
2023-04-26T01:41:25.115Z,79.63
2023-04-26T01:42:25.103Z,79.43
2023-04-26T01:43:25.079Z,80.19
2023-04-26T01:44:25.062Z,80.15
2023-04-26T01:45:25.067Z,80.15
2023-04-26T01:46:25.088Z,80.19
2023-04-26T01:47:25.061Z,80.46
2023-04-26T01:48:25.030Z,80.88
2023-04-26T01:49:25.022Z,80.19
2023-04-26T01:50:24.997Z,80.50
2023-04-26T01:51:25.008Z,80.40
2023-04-26T01:52:24.973Z,80.40
2023-04-26T01:53:24.963Z,80.19
2023-04-26T01:54:24.954Z,80.71
2023-04-26T01:55:24.966Z,80.60
2023-04-26T01:56:24.944Z,80.19
2023-04-26T01:57:24.923Z,80.40
2023-04-26T01:58:24.904Z,80.50
2023-04-26T01:59:24.922Z,80.19
2023-04-26T02:00:24.902Z,80.71
2023-04-26T02:01:24.969Z,80.81
2023-04-26T02:02:24.897Z,80.50
2023-04-26T02:03:24.989Z,80.60
2023-04-26T02:04:24.833Z,80.50
2023-04-26T02:05:25.054Z,80.74
2023-04-26T02:06:24.839Z,80.81
2023-04-26T02:07:24.804Z,80.60
2023-04-26T02:08:24.808Z,80.85
2023-04-26T02:09:24.808Z,81.02
2023-04-26T02:10:24.774Z,80.54
2023-04-26T02:11:24.808Z,80.74
2023-04-26T02:12:24.766Z,80.54
2023-04-26T02:13:24.737Z,80.91
2023-04-26T02:14:24.751Z,80.50
2023-04-26T02:15:24.720Z,80.71
2023-04-26T02:16:24.854Z,80.40
2023-04-26T02:17:24.708Z,80.40
2023-04-26T02:18:24.703Z,80.60
2023-04-26T02:19:24.680Z,80.60
2023-04-26T02:20:24.656Z,80.60
2023-04-26T02:21:24.655Z,80.19
2023-04-26T02:22:24.660Z,80.71
2023-04-26T02:23:24.658Z,80.74
2023-04-26T02:24:24.625Z,80.71
2023-04-26T02:25:24.630Z,80.85
2023-04-26T02:26:24.603Z,80.91
2023-04-26T02:27:24.623Z,80.91
2023-04-26T02:28:24.626Z,80.91
2023-04-26T02:29:36.346Z,80.95
2023-04-26T02:30:25.563Z,80.60
2023-04-26T02:31:24.610Z,81.16
2023-04-26T02:32:24.529Z,81.68
2023-04-26T02:33:24.547Z,81.64
2023-04-26T02:34:24.551Z,82.09
2023-04-26T02:35:24.491Z,81.64
2023-04-26T02:36:24.504Z,82.46
2023-04-26T02:37:24.464Z,82.19
2023-04-26T02:38:24.455Z,82.60
2023-04-26T02:39:24.502Z,82.29
2023-04-26T02:40:24.441Z,82.19
2023-04-26T02:41:24.431Z,82.23
2023-04-26T02:42:24.426Z,82.19
2023-04-26T02:43:24.498Z,82.65
2023-04-26T02:44:24.401Z,82.65
2023-04-26T02:45:24.382Z,82.54
2023-04-26T02:46:24.402Z,82.44
2023-04-26T02:47:24.405Z,81.92
2023-04-26T02:48:24.381Z,82.23
2023-04-26T02:49:24.328Z,82.03
2023-04-26T02:50:24.349Z,82.44
2023-04-26T02:51:24.314Z,82.54
2023-04-26T02:52:24.298Z,82.48
2023-04-26T02:53:24.333Z,82.27
2023-04-26T02:54:24.283Z,83.10
2023-04-26T02:55:24.288Z,82.79
2023-04-26T02:56:24.242Z,82.68
2023-04-26T02:57:24.243Z,82.89
2023-04-26T02:58:24.248Z,82.89
2023-04-26T02:59:24.237Z,82.68
2023-04-26T03:00:24.243Z,83.10
2023-04-26T03:01:24.203Z,83.51
2023-04-26T03:02:24.329Z,83.10
2023-04-26T03:03:24.260Z,83.31
2023-04-26T03:04:24.192Z,83.24
2023-04-26T03:05:24.181Z,82.93
2023-04-26T03:06:24.132Z,83.03
2023-04-26T03:07:24.134Z,83.34
2023-04-26T03:08:24.119Z,83.24
2023-04-26T03:09:24.106Z,83.24
2023-04-26T03:10:24.081Z,83.45
2023-04-26T03:11:24.090Z,83.55
2023-04-26T03:12:24.071Z,83.76
2023-04-26T03:13:24.071Z,83.76
2023-04-26T03:14:24.062Z,83.76
2023-04-26T03:15:24.065Z,83.86
2023-04-26T03:16:24.129Z,83.69
2023-04-26T03:17:24.052Z,83.65
2023-04-26T03:18:24.053Z,83.65
2023-04-26T03:19:24.014Z,83.76
2023-04-26T03:20:23.970Z,83.45
2023-04-26T03:21:23.993Z,83.34
2023-04-26T03:22:23.946Z,83.45
2023-04-26T03:23:23.962Z,83.34
2023-04-26T03:24:23.946Z,83.97
2023-04-26T03:25:23.918Z,84.07
2023-04-26T03:26:23.928Z,84.42
2023-04-26T03:27:23.915Z,84.63
2023-04-26T03:28:23.905Z,84.07
2023-04-26T03:29:23.892Z,84.59
2023-04-26T03:30:23.874Z,84.52
2023-04-26T03:31:23.989Z,84.21
2023-04-26T03:32:23.839Z,84.52
2023-04-26T03:33:23.848Z,84.59
2023-04-26T03:34:23.834Z,84.90
2023-04-26T03:35:23.827Z,84.48
2023-04-26T03:36:23.803Z,84.94
2023-04-26T03:37:23.804Z,84.80
2023-04-26T03:38:23.765Z,85.21
2023-04-26T03:39:23.779Z,85.42
2023-04-26T03:40:23.750Z,84.90
2023-04-26T03:41:23.772Z,85.83
2023-04-26T03:42:23.732Z,86.25
2023-04-26T03:43:23.738Z,86.29
2023-04-26T03:44:23.715Z,86.15
2023-04-26T03:45:23.703Z,86.25
2023-04-26T03:46:23.792Z,86.15
2023-04-26T03:47:23.721Z,86.15
2023-04-26T03:48:23.816Z,86.18
2023-04-26T03:49:23.650Z,86.29
2023-04-26T03:50:23.636Z,86.18
2023-04-26T03:51:23.634Z,86.80
2023-04-26T03:52:23.643Z,86.33
2023-04-26T03:53:23.601Z,86.80
2023-04-26T03:54:23.616Z,86.64
2023-04-26T03:55:23.595Z,86.64
2023-04-26T03:56:23.580Z,87.05
2023-04-26T03:57:23.569Z,87.16
2023-04-26T03:58:23.611Z,86.95
2023-04-26T03:59:23.544Z,86.95
2023-04-26T04:00:23.532Z,87.05
2023-04-26T04:01:23.518Z,87.37
2023-04-26T04:02:23.605Z,87.61
2023-04-26T04:03:23.755Z,88.13
2023-04-26T04:04:23.796Z,87.92
2023-04-26T04:05:23.578Z,88.02
2023-04-26T04:06:23.450Z,88.13
2023-04-26T04:07:23.445Z,88.07
2023-04-26T04:08:23.476Z,88.13
2023-04-26T04:09:23.438Z,87.92
2023-04-26T04:10:23.414Z,87.82
2023-04-26T04:11:23.419Z,87.92
2023-04-26T04:12:23.380Z,88.02
2023-04-26T04:13:23.388Z,87.92
2023-04-26T04:14:23.367Z,88.02
2023-04-26T04:15:23.345Z,88.13
2023-04-26T04:16:23.473Z,87.61
2023-04-26T04:17:23.353Z,88.07
2023-04-26T04:18:23.374Z,87.96
2023-04-26T04:19:23.482Z,87.55
2023-04-26T04:20:23.292Z,87.24
2023-04-26T04:21:23.275Z,87.65
2023-04-26T04:22:23.278Z,88.28
2023-04-26T04:23:23.259Z,87.96
2023-04-26T04:24:23.266Z,88.28
2023-04-26T04:25:23.231Z,88.38
2023-04-26T04:26:23.233Z,88.59
2023-04-26T04:27:23.209Z,87.96
2023-04-26T04:28:23.231Z,88.07
2023-04-26T04:29:23.226Z,88.00
2023-04-26T04:30:23.184Z,88.07
2023-04-26T04:31:23.276Z,88.79
2023-04-26T04:32:23.217Z,88.59
2023-04-26T04:33:23.146Z,88.62
2023-04-26T04:34:23.161Z,88.59
2023-04-26T04:35:23.153Z,88.42
2023-04-26T04:36:23.125Z,88.59
2023-04-26T04:37:23.109Z,88.59
2023-04-26T04:38:23.111Z,88.31
2023-04-26T04:39:23.099Z,88.79
2023-04-26T04:40:23.083Z,89.21
2023-04-26T04:41:23.069Z,89.62
2023-04-26T04:42:23.045Z,89.52
2023-04-26T04:43:23.044Z,89.73
2023-04-26T04:44:23.030Z,90.41
2023-04-26T04:45:23.021Z,90.14
2023-04-26T04:46:23.023Z,90.14
2023-04-26T04:47:23.030Z,90.20
2023-04-26T04:48:22.979Z,89.89
2023-04-26T04:49:22.974Z,89.83
2023-04-26T04:50:22.995Z,90.10
2023-04-26T04:51:22.974Z,89.89
2023-04-26T04:52:22.935Z,90.66
2023-04-26T04:53:22.923Z,90.35
2023-04-26T04:54:22.908Z,90.41
2023-04-26T04:55:22.895Z,90.35
2023-04-26T04:56:22.926Z,90.52
2023-04-26T04:57:22.907Z,90.10
2023-04-26T04:58:22.877Z,90.10
2023-04-26T04:59:22.865Z,90.20
2023-04-26T05:00:22.891Z,90.52
2023-04-26T05:01:22.912Z,90.31
2023-04-26T05:02:22.978Z,90.52
2023-04-26T05:03:22.971Z,90.72
2023-04-26T05:04:22.982Z,90.62
2023-04-26T05:05:22.801Z,90.62
2023-04-26T05:06:22.774Z,90.41
2023-04-26T05:07:24.459Z,90.89
2023-04-26T05:08:22.756Z,91.03
2023-04-26T05:09:22.743Z,90.93
2023-04-26T05:10:22.746Z,90.69
2023-04-26T05:11:22.726Z,90.79
2023-04-26T05:12:22.720Z,91.10
2023-04-26T05:13:22.706Z,90.89
2023-04-26T05:14:22.705Z,90.48
2023-04-26T05:15:22.704Z,90.06
2023-04-26T05:16:22.769Z,90.64
2023-04-26T05:17:22.679Z,90.44
2023-04-26T05:18:22.654Z,90.54
2023-04-26T05:19:22.645Z,90.23
2023-04-26T05:20:22.647Z,90.39
2023-04-26T05:21:22.610Z,90.70
2023-04-26T05:22:22.618Z,89.67
2023-04-26T05:23:22.624Z,89.83
2023-04-26T05:24:22.574Z,89.83
2023-04-26T05:25:22.982Z,89.38
2023-04-26T05:26:22.553Z,89.21
2023-04-26T05:27:22.539Z,89.17
2023-04-26T05:28:22.540Z,88.92
2023-04-26T05:29:22.538Z,89.03
2023-04-26T05:30:22.548Z,89.03
2023-04-26T05:31:22.546Z,88.26
2023-04-26T05:32:22.498Z,88.57
2023-04-26T05:33:22.485Z,89.23
2023-04-26T05:34:22.464Z,88.46
2023-04-26T05:35:22.456Z,88.36
2023-04-26T05:36:22.437Z,88.12
2023-04-26T05:37:22.482Z,87.60
2023-04-26T05:38:22.414Z,87.56
2023-04-26T05:39:22.432Z,87.66
2023-04-26T05:40:22.410Z,86.63
2023-04-26T05:41:22.380Z,86.49
2023-04-26T05:42:22.431Z,86.28
2023-04-26T05:43:22.361Z,85.93
2023-04-26T05:44:22.349Z,85.78
2023-04-26T05:45:22.351Z,85.00
2023-04-26T05:46:22.386Z,84.72
2023-04-26T05:47:22.333Z,84.20
2023-04-26T05:48:22.324Z,84.20
2023-04-26T05:49:22.300Z,83.48
2023-04-26T05:50:22.290Z,83.13
2023-04-26T05:51:22.279Z,82.51
2023-04-26T05:52:22.511Z,82.40
2023-04-26T05:53:22.352Z,81.79
2023-04-26T05:54:22.257Z,80.82
2023-04-26T05:55:22.253Z,80.20
2023-04-26T05:56:22.209Z,80.41
2023-04-26T05:57:22.253Z,79.34
2023-04-26T05:58:22.222Z,79.65
2023-04-26T05:59:22.170Z,78.62
2023-04-26T06:00:22.178Z,77.62
2023-04-26T06:01:22.164Z,77.83
2023-04-26T06:02:22.216Z,78.14
2023-04-26T06:03:22.327Z,78.11
2023-04-26T06:04:22.320Z,78.31
2023-04-26T06:05:22.217Z,78.58
2023-04-26T06:06:22.102Z,78.28
2023-04-26T06:07:22.077Z,78.24
2023-04-26T06:08:22.085Z,78.14
2023-04-26T06:09:22.100Z,76.59
2023-04-26T06:10:22.058Z,76.52
2023-04-26T06:11:22.071Z,75.90
2023-04-26T06:12:22.034Z,75.04
2023-04-26T06:13:22.079Z,75.04
2023-04-26T06:14:29.870Z,74.60
2023-04-26T06:15:23.020Z,74.26
2023-04-26T06:16:22.018Z,72.96
2023-04-26T06:17:22.034Z,71.59
2023-04-26T06:18:22.007Z,70.76
2023-04-26T06:19:21.949Z,71.21
2023-04-26T06:20:21.937Z,70.21
2023-04-26T06:21:22.009Z,71.24
2023-04-26T06:22:21.923Z,72.17
2023-04-26T06:23:21.911Z,72.34
2023-04-26T06:24:21.889Z,72.17
2023-04-26T06:25:21.894Z,71.96
2023-04-26T06:26:21.866Z,71.59
2023-04-26T06:27:21.928Z,71.11
2023-04-26T06:28:21.856Z,71.41
2023-04-26T06:29:21.890Z,71.59
2023-04-26T06:30:21.841Z,72.34
2023-04-26T06:31:21.890Z,72.06
2023-04-26T06:32:21.859Z,73.16
2023-04-26T06:33:21.797Z,72.61
2023-04-26T06:34:21.818Z,72.10
2023-04-26T06:35:21.761Z,71.25
2023-04-26T06:36:21.772Z,70.50
2023-04-26T06:37:21.746Z,69.03
2023-04-26T06:38:21.755Z,68.93
2023-04-26T06:39:21.737Z,68.38
2023-04-26T06:40:21.708Z,67.36
2023-04-26T06:41:21.696Z,66.82
2023-04-26T06:42:21.700Z,66.61
2023-04-26T06:43:21.713Z,66.48
2023-04-26T06:44:21.759Z,66.78
2023-04-26T06:45:21.731Z,66.69
2023-04-26T06:46:21.692Z,66.78
2023-04-26T06:47:21.673Z,65.53
2023-04-26T06:48:21.632Z,64.68
2023-04-26T06:49:21.613Z,64.17
2023-04-26T06:50:21.609Z,62.66
2023-04-26T06:51:21.610Z,63.79
2023-04-26T06:52:21.763Z,63.89
2023-04-26T06:53:23.130Z,64.00
2023-04-26T06:54:21.566Z,62.87
2023-04-26T06:55:21.600Z,62.90
2023-04-26T06:56:21.541Z,62.59
2023-04-26T06:57:21.513Z,63.85
2023-04-26T06:58:21.517Z,64.64
2023-04-26T06:59:21.510Z,63.92
2023-04-26T07:00:21.520Z,64.74
2023-04-26T07:01:21.492Z,64.40
2023-04-26T07:02:21.614Z,64.10
2023-04-26T07:03:21.516Z,64.00
2023-04-26T07:04:21.624Z,64.48
2023-04-26T07:05:21.725Z,64.17
2023-04-26T07:06:21.450Z,64.99
2023-04-26T07:07:21.408Z,63.83
2023-04-26T07:08:21.422Z,63.63
2023-04-26T07:09:21.398Z,63.32
2023-04-26T07:10:21.406Z,62.58
2023-04-26T07:11:22.325Z,62.92
2023-04-26T07:12:21.360Z,62.92
2023-04-26T07:13:21.346Z,62.58
2023-04-26T07:14:21.324Z,63.19
2023-04-26T07:15:21.389Z,62.78
2023-04-26T07:16:21.369Z,61.97
2023-04-26T07:17:21.291Z,60.44
2023-04-26T07:18:21.311Z,62.37
2023-04-26T07:19:21.283Z,62.58
2023-04-26T07:20:21.271Z,62.51
2023-04-26T07:21:21.273Z,63.29
2023-04-26T07:22:21.250Z,62.78
2023-04-26T07:23:21.220Z,63.29
2023-04-26T07:24:21.222Z,60.13
2023-04-26T07:25:21.207Z,60.57
2023-04-26T07:26:21.198Z,60.52
2023-04-26T07:27:21.206Z,60.85
2023-04-26T07:28:21.168Z,60.99
2023-04-26T07:29:21.150Z,61.83
2023-04-26T07:30:21.168Z,63.68
2023-04-26T07:31:21.220Z,64.39
2023-04-26T07:32:21.195Z,65.62
2023-04-26T07:33:21.187Z,65.80
2023-04-26T07:34:21.116Z,64.54
2023-04-26T07:35:21.082Z,64.95
2023-04-26T07:36:23.045Z,64.95
2023-04-26T07:37:21.077Z,64.81
2023-04-26T07:38:21.095Z,62.66
2023-04-26T07:39:21.829Z,62.16
2023-04-26T07:40:21.051Z,62.16
2023-04-26T07:41:21.016Z,61.16
2023-04-26T07:42:21.022Z,61.98
2023-04-26T07:43:21.002Z,61.47
2023-04-26T07:44:21.001Z,60.75
2023-04-26T07:45:20.972Z,61.65
2023-04-26T07:46:21.055Z,62.16
2023-04-26T07:47:21.281Z,62.57
2023-04-26T07:48:21.055Z,60.83
2023-04-26T07:49:20.969Z,61.65
2023-04-26T07:50:20.945Z,62.33
2023-04-26T07:51:20.904Z,62.84
2023-04-26T07:52:20.909Z,62.92
2023-04-26T07:53:20.889Z,62.81
2023-04-26T07:54:20.888Z,61.38
2023-04-26T07:55:20.873Z,60.64
2023-04-26T07:56:20.889Z,61.76
2023-04-26T07:57:20.845Z,60.10
2023-04-26T07:58:20.825Z,60.10
2023-04-26T07:59:20.808Z,60.82
2023-04-26T08:00:20.813Z,61.30
2023-04-26T08:01:20.819Z,60.07
2023-04-26T08:02:27.088Z,60.38
2023-04-26T08:03:22.023Z,58.54
2023-04-26T08:04:20.879Z,58.01
2023-04-26T08:05:20.959Z,58.31
2023-04-26T08:06:20.769Z,58.31
2023-04-26T08:07:20.721Z,58.51
2023-04-26T08:08:20.761Z,56.76
2023-04-26T08:09:20.722Z,58.11
2023-04-26T08:10:20.709Z,58.11
2023-04-26T08:11:20.760Z,57.39
2023-04-26T08:12:20.669Z,56.30
2023-04-26T08:13:20.668Z,56.60
2023-04-26T08:14:20.665Z,56.50
2023-04-26T08:15:20.655Z,56.71
2023-04-26T08:16:20.715Z,55.71
2023-04-26T08:17:20.678Z,56.15
2023-04-26T08:18:20.616Z,57.63
2023-04-26T08:19:20.788Z,58.55
2023-04-26T08:20:20.615Z,59.37
2023-04-26T08:21:20.597Z,60.26
2023-04-26T08:22:20.566Z,60.57
2023-04-26T08:23:20.549Z,58.93
2023-04-26T08:24:20.526Z,60.05
2023-04-26T08:25:20.536Z,60.03
2023-04-26T08:26:20.581Z,58.67
2023-04-26T08:27:20.491Z,57.83
2023-04-26T08:28:20.483Z,57.80
2023-04-26T08:29:20.489Z,57.80
2023-04-26T08:30:20.465Z,57.87
2023-04-26T08:31:20.513Z,56.65
2023-04-26T08:32:20.484Z,55.84
2023-04-26T08:33:20.469Z,55.15
2023-04-26T08:34:20.403Z,54.97
2023-04-26T08:35:20.434Z,56.50
2023-04-26T08:36:20.388Z,58.44
2023-04-26T08:37:20.399Z,58.47
2023-04-26T08:38:20.404Z,57.32
2023-04-26T08:39:20.375Z,58.16
2023-04-26T08:40:20.352Z,58.78
2023-04-26T08:41:20.331Z,58.57
2023-04-26T08:42:20.335Z,58.06
2023-04-26T08:43:20.324Z,58.75
2023-04-26T08:44:20.327Z,58.23
2023-04-26T08:45:20.349Z,58.34
2023-04-26T08:46:20.294Z,58.54
2023-04-26T08:47:20.263Z,58.14
2023-04-26T08:48:20.274Z,58.23
2023-04-26T08:49:20.242Z,58.03
2023-04-26T08:50:20.267Z,56.50
2023-04-26T08:51:20.305Z,56.40
2023-04-26T08:52:20.226Z,54.97
2023-04-26T08:53:20.212Z,53.75
2023-04-26T08:54:20.234Z,54.16
2023-04-26T08:55:20.368Z,53.88
2023-04-26T08:56:20.164Z,54.21
2023-04-26T08:57:20.168Z,54.74
2023-04-26T08:58:20.157Z,54.97
2023-04-26T08:59:20.159Z,55.08
2023-04-26T09:00:20.126Z,55.46
2023-04-26T09:01:20.176Z,55.05
2023-04-26T09:02:20.269Z,53.39
2023-04-26T09:03:20.207Z,52.58
2023-04-26T09:04:20.428Z,53.29
2023-04-26T09:05:20.102Z,52.78
2023-04-26T09:06:20.053Z,53.39
2023-04-26T09:07:20.080Z,54.00
2023-04-26T09:08:20.045Z,54.18
2023-04-26T09:09:20.045Z,53.67
2023-04-26T09:10:20.001Z,54.28
2023-04-26T09:11:20.031Z,53.64
2023-04-26T09:12:19.993Z,53.44
2023-04-26T09:13:19.988Z,52.32
2023-04-26T09:14:19.991Z,53.14
2023-04-26T09:15:20.000Z,53.24
2023-04-26T09:16:20.033Z,53.52
2023-04-26T09:17:19.969Z,52.58
2023-04-26T09:18:19.924Z,51.25
2023-04-26T09:19:19.920Z,51.33
2023-04-26T09:20:19.969Z,53.04
2023-04-26T09:21:19.895Z,50.57
2023-04-26T09:22:19.914Z,49.12
2023-04-26T09:23:19.910Z,50.45
2023-04-26T09:24:19.868Z,49.12
2023-04-26T09:25:19.831Z,49.81
2023-04-26T09:26:19.841Z,48.87
2023-04-26T09:27:19.844Z,47.63
2023-04-26T09:28:19.832Z,45.17
2023-04-26T09:29:19.801Z,46.64
2023-04-26T09:30:19.814Z,47.43
2023-04-26T09:31:19.782Z,47.33
2023-04-26T09:32:19.768Z,49.76
2023-04-26T09:33:19.846Z,49.16
2023-04-26T09:34:19.747Z,49.05
2023-04-26T09:35:19.734Z,48.95
2023-04-26T09:36:19.703Z,48.75
2023-04-26T09:37:19.723Z,48.57
2023-04-26T09:38:19.699Z,47.33
2023-04-26T09:39:19.711Z,48.77
2023-04-26T09:40:19.752Z,48.27
2023-04-26T09:41:19.653Z,48.55
2023-04-26T09:42:19.671Z,49.48
2023-04-26T09:43:19.625Z,49.66
2023-04-26T09:44:19.630Z,49.28
2023-04-26T09:45:19.606Z,49.16
2023-04-26T09:46:19.637Z,49.16
2023-04-26T09:47:19.606Z,46.53
2023-04-26T09:48:19.576Z,48.82
2023-04-26T09:49:19.596Z,48.84
2023-04-26T09:50:19.540Z,49.96
2023-04-26T09:51:19.552Z,51.18
2023-04-26T09:52:19.547Z,50.57
2023-04-26T09:53:19.538Z,50.06
2023-04-26T09:54:19.512Z,50.47
2023-04-26T09:55:33.988Z,49.78
2023-04-26T09:56:20.475Z,49.37
2023-04-26T09:57:19.517Z,50.11
2023-04-26T09:58:19.465Z,50.11
2023-04-26T09:59:19.439Z,49.21
2023-04-26T10:00:19.440Z,51.05
2023-04-26T10:01:19.501Z,51.97
2023-04-26T10:02:19.467Z,52.78
2023-04-26T10:03:19.599Z,52.27
2023-04-26T10:04:19.592Z,52.37
2023-04-26T10:05:19.391Z,52.37
2023-04-26T10:06:19.389Z,52.68
2023-04-26T10:07:19.353Z,52.15
2023-04-26T10:08:19.349Z,51.64
2023-04-26T10:09:19.360Z,49.52
2023-04-26T10:10:19.338Z,51.05
2023-04-26T10:11:19.349Z,51.05
2023-04-26T10:12:19.302Z,52.09
2023-04-26T10:13:19.290Z,52.58
2023-04-26T10:14:19.282Z,52.78
2023-04-26T10:15:19.379Z,52.37
2023-04-26T10:16:19.321Z,52.48
2023-04-26T10:17:19.244Z,52.35
2023-04-26T10:18:19.242Z,52.68
2023-04-26T10:19:19.243Z,51.46
2023-04-26T10:20:19.220Z,50.97
2023-04-26T10:21:19.231Z,51.86
2023-04-26T10:22:19.174Z,51.66
2023-04-26T10:23:19.168Z,52.07
2023-04-26T10:24:19.173Z,52.68
2023-04-26T10:25:19.173Z,52.27
2023-04-26T10:26:19.158Z,52.27
2023-04-26T10:27:19.247Z,51.03
2023-04-26T10:28:19.121Z,50.54
2023-04-26T10:29:19.120Z,50.74
2023-04-26T10:30:19.110Z,50.74
2023-04-26T10:31:19.162Z,51.79
2023-04-26T10:32:19.093Z,52.50
2023-04-26T10:33:19.168Z,53.19
2023-04-26T10:34:19.052Z,55.30
2023-04-26T10:35:19.039Z,54.51
2023-04-26T10:36:19.054Z,53.47
2023-04-26T10:37:19.082Z,52.22
2023-04-26T10:38:19.014Z,53.44
2023-04-26T10:39:19.016Z,53.32
2023-04-26T10:40:18.978Z,52.37
2023-04-26T10:41:18.980Z,51.77
2023-04-26T10:42:18.969Z,50.81
2023-04-26T10:43:18.996Z,50.58
2023-04-26T10:44:18.941Z,50.17
2023-04-26T10:45:18.921Z,49.64
2023-04-26T10:46:18.956Z,47.18
2023-04-26T10:47:18.967Z,47.89
2023-04-26T10:48:18.956Z,48.52
2023-04-26T10:49:18.894Z,47.59
2023-04-26T10:50:18.876Z,48.50
2023-04-26T10:51:18.893Z,49.21
2023-04-26T10:52:18.839Z,48.50
2023-04-26T10:53:19.426Z,47.59
2023-04-26T10:54:18.831Z,46.86
2023-04-26T10:55:18.826Z,47.36
2023-04-26T10:56:18.824Z,47.28
2023-04-26T10:57:18.799Z,47.18
2023-04-26T10:58:18.776Z,47.28
2023-04-26T10:59:36.209Z,47.18
2023-04-26T11:00:19.786Z,47.38
2023-04-26T11:01:18.876Z,47.00
2023-04-26T11:02:18.755Z,48.44
2023-04-26T11:03:18.884Z,48.11
2023-04-26T11:04:18.821Z,48.95
2023-04-26T11:05:18.713Z,49.16
2023-04-26T11:06:18.700Z,48.87
2023-04-26T11:07:18.731Z,49.58
2023-04-26T11:08:18.671Z,48.97
2023-04-26T11:09:18.654Z,49.28
2023-04-26T11:10:18.642Z,48.77
2023-04-26T11:11:18.639Z,48.27
2023-04-26T11:12:18.621Z,49.76
2023-04-26T11:13:18.636Z,47.43
2023-04-26T11:14:18.621Z,47.35
2023-04-26T11:15:18.624Z,47.66
2023-04-26T11:16:18.632Z,49.28
2023-04-26T11:17:18.580Z,48.47
2023-04-26T11:18:18.553Z,49.66
2023-04-26T11:19:18.557Z,48.97
2023-04-26T11:20:18.520Z,48.34
2023-04-26T11:21:18.542Z,49.16
2023-04-26T11:22:18.546Z,47.33
2023-04-26T11:23:18.533Z,48.44
2023-04-26T11:24:18.490Z,48.14
2023-04-26T11:25:18.486Z,48.63
2023-04-26T11:26:18.486Z,47.10
2023-04-26T11:27:18.447Z,47.59
2023-04-26T11:28:18.447Z,47.28
2023-04-26T11:29:18.450Z,47.18
2023-04-26T11:30:18.427Z,47.56
2023-04-26T11:31:18.603Z,47.26
2023-04-26T11:32:18.388Z,47.16
2023-04-26T11:33:18.403Z,45.64
2023-04-26T11:34:18.384Z,45.03
2023-04-26T11:35:18.368Z,44.62
2023-04-26T11:36:18.356Z,44.62
2023-04-26T11:37:18.366Z,46.35
2023-04-26T11:38:18.321Z,46.67
2023-04-26T11:39:18.325Z,46.55
2023-04-26T11:40:18.313Z,45.43
2023-04-26T11:41:18.323Z,45.03
2023-04-26T11:42:18.286Z,44.32
2023-04-26T11:43:18.303Z,41.99
2023-04-26T11:44:18.264Z,43.93
2023-04-26T11:45:18.258Z,43.63
2023-04-26T11:46:18.264Z,43.63
2023-04-26T11:47:18.249Z,44.26
2023-04-26T11:48:18.251Z,43.75
2023-04-26T11:49:18.256Z,44.99
2023-04-26T11:50:18.204Z,44.48
2023-04-26T11:51:18.223Z,46.51
2023-04-26T11:52:18.206Z,47.00
2023-04-26T11:53:18.153Z,46.88
2023-04-26T11:54:18.172Z,47.36
2023-04-26T11:55:18.157Z,44.90
2023-04-26T11:56:18.128Z,44.30
2023-04-26T11:57:18.461Z,45.31
2023-04-26T11:58:18.109Z,45.79
2023-04-26T11:59:18.122Z,46.59
2023-04-26T12:00:18.075Z,44.76
2023-04-26T12:01:18.078Z,43.95
2023-04-26T12:02:18.086Z,45.45
2023-04-26T12:03:18.392Z,43.73
2023-04-26T12:04:18.296Z,41.93
2023-04-26T12:05:18.037Z,43.37
2023-04-26T12:06:18.026Z,43.04
2023-04-26T12:07:18.012Z,43.47
2023-04-26T12:08:17.981Z,41.34
2023-04-26T12:09:18.003Z,43.77
2023-04-26T12:10:17.985Z,43.37
2023-04-26T12:11:17.977Z,44.78
2023-04-26T12:12:17.950Z,44.89
2023-04-26T12:13:17.948Z,44.18
2023-04-26T12:14:17.949Z,44.15
2023-04-26T12:15:17.912Z,43.44
2023-04-26T12:16:26.250Z,44.36
2023-04-26T12:17:18.960Z,44.06
2023-04-26T12:18:18.012Z,42.21
2023-04-26T12:19:17.922Z,43.32
2023-04-26T12:20:17.881Z,43.91
2023-04-26T12:21:17.851Z,42.92
2023-04-26T12:22:17.841Z,43.00
2023-04-26T12:23:17.830Z,42.29
2023-04-26T12:24:17.825Z,43.51
2023-04-26T12:25:17.798Z,41.28
2023-04-26T12:26:17.802Z,42.01
2023-04-26T12:27:17.766Z,41.80
2023-04-26T12:28:17.765Z,42.72
2023-04-26T12:29:17.758Z,43.02
2023-04-26T12:30:17.742Z,41.89
2023-04-26T12:31:17.758Z,41.49
2023-04-26T12:32:17.708Z,42.72
2023-04-26T12:33:18.153Z,43.41
2023-04-26T12:34:17.706Z,44.84
2023-04-26T12:35:17.747Z,43.10
2023-04-26T12:36:17.660Z,43.91
2023-04-26T12:37:17.796Z,43.79
2023-04-26T12:38:17.646Z,43.77
2023-04-26T12:39:17.645Z,44.07
2023-04-26T12:40:17.628Z,44.66
2023-04-26T12:41:17.610Z,43.55
2023-04-26T12:42:17.610Z,42.21
2023-04-26T12:43:17.600Z,43.02
2023-04-26T12:44:19.650Z,42.61
2023-04-26T12:45:17.561Z,43.12
2023-04-26T12:46:17.614Z,42.70
2023-04-26T12:47:17.556Z,43.71
2023-04-26T12:48:17.867Z,43.08
2023-04-26T12:49:17.512Z,41.89
2023-04-26T12:50:18.632Z,41.06
2023-04-26T12:51:17.510Z,40.98
2023-04-26T12:52:17.490Z,42.32